Time;durP1;ratioP1;P1;durP2;ratioP2;P2;SDS_P1;SDS_P2;PMS_P1;PMS_P2;Temp;Humidity;BMP_temperature;BMP_pressure;BME280_temperature;BME280_humidity;BME280_pressure;Samples;Min_cycle;Max_cycle;Signal;HPM_P1;HPM_P2
2021/07/26 00:01:41;;;;;;;18.47;9.20;;;;;;;18.92;61.88;98677.16;125455;1096;103014;-72
2021/07/26 00:04:10;;;;;;;17.33;9.23;;;;;;;18.94;61.63;98677.83;125443;1097;102923;-72
2021/07/26 00:06:39;;;;;;;18.27;9.40;;;;;;;18.93;61.58;98679.70;125471;1097;103023;-73
2021/07/26 00:09:07;;;;;;;18.27;9.30;;;;;;;18.94;61.92;98685.91;125458;1095;103005;-72
2021/07/26 00:11:35;;;;;;;20.63;10.10;;;;;;;18.93;62.07;98686.92;125451;1096;103173;-73
2021/07/26 00:14:04;;;;;;;19.53;10.10;;;;;;;18.94;61.78;98689.46;125465;1097;103017;-72
2021/07/26 00:16:32;;;;;;;19.77;9.97;;;;;;;18.95;61.98;98684.89;125453;1095;103001;-74
2021/07/26 00:19:01;;;;;;;16.90;8.50;;;;;;;18.93;62.04;98671.61;125436;1097;103010;-72
2021/07/26 00:21:30;;;;;;;17.43;8.77;;;;;;;18.90;61.88;98669.27;125458;1097;103080;-72
2021/07/26 00:23:58;;;;;;;18.57;9.03;;;;;;;18.85;61.86;98664.38;125439;1097;103151;-72
2021/07/26 00:26:26;;;;;;;31.30;10.33;;;;;;;18.80;61.95;98661.37;125465;1096;103023;-74
2021/07/26 00:28:55;;;;;;;19.63;8.77;;;;;;;18.72;61.62;98656.04;125385;1097;103025;-73
2021/07/26 00:31:24;;;;;;;18.77;9.50;;;;;;;18.66;61.98;98662.95;125451;1097;102916;-73
2021/07/26 00:34:08;;;;;;;18.67;8.97;;;;;;;18.61;62.07;98668.01;125453;1096;103002;-73
2021/07/26 00:36:42;;;;;;;18.83;9.90;;;;;;;18.58;62.08;98669.20;125445;1096;103035;-73
2021/07/26 00:39:11;;;;;;;;;;;;;;;18.55;62.53;98663.31;125492;1097;102919;-72
2021/07/26 00:41:41;;;;;;;18.40;9.03;;;;;;;18.54;62.33;98657.09;125431;1097;102951;-72
2021/07/26 00:44:10;;;;;;;20.20;9.57;;;;;;;18.51;62.72;98654.75;125503;1095;103001;-71
2021/07/26 00:46:38;;;;;;;20.50;9.47;;;;;;;18.50;62.39;98657.63;125538;1097;102930;-72
2021/07/26 00:49:10;;;;;;;18.87;9.13;;;;;;;18.49;62.87;98656.77;125411;1096;102916;-73
2021/07/26 00:51:40;;;;;;;19.07;9.57;;;;;;;18.48;62.48;98660.48;125457;1097;102943;-73
2021/07/26 00:54:09;;;;;;;21.07;10.30;;;;;;;18.45;62.84;98660.82;125413;1096;103167;-73
2021/07/26 00:56:39;;;;;;;19.90;9.90;;;;;;;18.43;63.01;98652.08;125496;1096;102953;-74
2021/07/26 00:59:11;;;;;;;18.93;9.57;;;;;;;18.43;63.06;98654.77;125459;1096;103074;-73
2021/07/26 01:01:39;;;;;;;18.73;9.13;;;;;;;18.41;62.87;98649.56;125436;1096;103025;-74
2021/07/26 01:04:09;;;;;;;17.63;9.23;;;;;;;18.41;62.94;98649.56;125462;1096;102926;-73
2021/07/26 01:06:39;;;;;;;17.70;9.47;;;;;;;18.42;63.04;98643.17;125424;1096;102981;-74
2021/07/26 01:09:08;;;;;;;22.63;10.93;;;;;;;18.42;63.37;98647.70;125435;1095;103041;-73
2021/07/26 01:11:37;;;;;;;20.40;9.45;;;;;;;18.37;63.41;98644.68;125544;1096;103354;-73
2021/07/26 01:14:06;;;;;;;18.17;9.43;;;;;;;18.35;63.10;98633.24;126262;1097;103035;-72
2021/07/26 01:16:36;;;;;;;20.73;9.43;;;;;;;18.34;63.14;98629.73;125415;1096;103022;-71
2021/07/26 01:19:04;;;;;;;18.93;10.03;;;;;;;18.35;63.37;98635.94;125874;1095;103022;-72
2021/07/26 01:21:33;;;;;;;18.50;9.27;;;;;;;18.36;63.64;98633.09;125375;1096;102912;-72
2021/07/26 01:24:02;;;;;;;18.37;9.57;;;;;;;18.35;63.66;98635.94;125322;1097;103287;-73
2021/07/26 01:26:31;;;;;;;19.90;10.90;;;;;;;18.37;63.73;98633.91;125937;1096;103020;-72
2021/07/26 01:29:04;;;;;;;20.63;9.60;;;;;;;18.37;63.26;98631.22;125463;1096;103090;-71
2021/07/26 01:31:33;;;;;;;19.35;9.68;;;;;;;18.38;63.41;98632.90;125427;1096;102940;-72
2021/07/26 01:34:02;;;;;;;19.60;10.30;;;;;;;18.40;63.86;98633.57;125528;1096;102919;-72
2021/07/26 01:36:31;;;;;;;18.90;9.37;;;;;;;18.42;63.83;98621.63;125479;1096;103031;-69
2021/07/26 01:39:00;;;;;;;21.17;9.00;;;;;;;18.42;63.69;98620.77;125424;1096;102917;-72
2021/07/26 01:41:35;;;;;;;19.83;9.00;;;;;;;18.41;64.02;98619.09;125462;1095;103610;-72
2021/07/26 01:44:10;;;;;;;19.17;9.80;;;;;;;18.40;63.57;98623.66;125427;1096;102920;-72
2021/07/26 01:46:54;;;;;;;17.13;8.60;;;;;;;18.39;64.21;98613.04;125474;1097;103004;-72
2021/07/26 01:49:47;;;;;;;20.08;9.23;;;;;;;18.38;64.31;98612.22;125435;1095;102918;-79
2021/07/26 01:52:17;;;;;;;19.70;9.53;;;;;;;18.40;63.82;98606.64;125496;1096;102924;-83
2021/07/26 01:54:45;;;;;;;21.83;9.67;;;;;;;18.40;64.08;98612.03;125452;1095;102919;-80
2021/07/26 01:57:14;;;;;;;21.33;10.30;;;;;;;18.40;64.35;98618.27;125489;1097;103012;-77
2021/07/26 01:59:44;;;;;;;18.10;9.13;;;;;;;18.42;64.17;98618.94;125465;1097;102997;-75
2021/07/26 02:02:13;;;;;;;18.73;9.80;;;;;;;18.47;64.39;98622.97;125493;1097;102943;-78
2021/07/26 02:04:41;;;;;;;18.65;9.55;;;;;;;18.50;64.42;98619.92;125456;1097;102925;-74
2021/07/26 02:07:11;;;;;;;18.93;10.07;;;;;;;18.53;64.42;98622.28;125506;1096;102911;-80
2021/07/26 02:09:39;;;;;;;17.83;9.83;;;;;;;18.54;64.37;98627.47;125447;1096;103014;-79
2021/07/26 02:12:08;;;;;;;18.10;9.20;;;;;;;18.58;64.62;98634.20;125498;1096;102970;-83
2021/07/26 02:14:36;;;;;;;17.27;8.73;;;;;;;18.62;64.53;98637.37;125497;1096;103044;-81
2021/07/26 02:17:06;;;;;;;19.40;10.20;;;;;;;18.67;64.63;98645.77;125654;1096;103054;-82
2021/07/26 02:19:35;;;;;;;19.23;9.67;;;;;;;18.72;64.56;98659.56;125548;1097;102923;-82
2021/07/26 02:22:04;;;;;;;18.27;9.33;;;;;;;18.77;64.59;98671.67;125511;1097;103014;-81
2021/07/26 02:24:32;;;;;;;17.90;9.20;;;;;;;18.83;64.15;98687.14;125502;1096;103070;-81
2021/07/26 02:27:04;;;;;;;17.87;9.10;;;;;;;18.88;64.47;98717.92;125476;1096;103119;-82
2021/07/26 02:29:33;;;;;;;21.00;9.37;;;;;;;18.96;64.51;98752.11;125443;1096;103051;-81
2021/07/26 02:32:01;;;;;;;21.00;8.73;;;;;;;19.04;64.27;98827.56;125464;1097;103019;-81
2021/07/26 02:34:30;;;;;;;19.43;8.80;;;;;;;19.13;64.34;98849.11;125435;1096;102936;-81
2021/07/26 02:36:59;;;;;;;18.03;9.30;;;;;;;19.16;64.55;98846.07;125495;1096;103010;-81
2021/07/26 02:39:27;;;;;;;19.97;8.90;;;;;;;19.16;64.50;98852.29;125479;1096;103193;-81
2021/07/26 02:41:56;;;;;;;16.07;8.03;;;;;;;19.16;64.56;98848.77;125442;1096;103026;-78
2021/07/26 02:44:24;;;;;;;19.15;9.30;;;;;;;19.13;64.37;98862.59;125429;1096;103067;-79
2021/07/26 02:46:53;;;;;;;17.57;8.73;;;;;;;19.10;64.76;98842.22;125470;1097;103015;-82
2021/07/26 02:49:21;;;;;;;16.47;8.80;;;;;;;19.06;64.50;98826.55;125489;1097;103416;-81
2021/07/26 02:51:49;;;;;;;20.87;8.43;;;;;;;19.03;64.49;98825.88;125483;1094;103018;-80
2021/07/26 02:54:18;;;;;;;19.30;8.60;;;;;;;19.00;65.01;98815.44;125442;1096;102945;-81
2021/07/26 02:56:46;;;;;;;15.77;8.47;;;;;;;18.97;64.56;98805.00;125466;1096;102922;-80
2021/07/26 02:59:14;;;;;;;18.37;8.40;;;;;;;18.85;64.68;98807.19;125439;1096;103017;-80
2021/07/26 03:01:43;;;;;;;18.45;8.60;;;;;;;18.74;64.76;98803.01;125468;1095;102956;-78
2021/07/26 03:04:11;;;;;;;18.23;8.50;;;;;;;18.70;64.89;98800.84;125463;1096;103029;-79
2021/07/26 03:06:40;;;;;;;17.57;9.20;;;;;;;18.67;65.14;98780.45;125407;1097;103009;-80
2021/07/26 03:09:08;;;;;;;17.53;8.30;;;;;;;18.69;65.20;98777.61;125462;1096;102945;-79
2021/07/26 03:11:37;;;;;;;16.43;7.83;;;;;;;18.70;65.32;98763.95;125482;1096;103449;-79
2021/07/26 03:14:05;;;;;;;17.00;8.00;;;;;;;18.72;65.06;98761.10;125457;1096;103094;-80
2021/07/26 03:16:34;;;;;;;15.73;7.50;;;;;;;18.74;65.38;98757.21;125426;1096;103098;-80
2021/07/26 03:19:02;;;;;;;14.97;7.03;;;;;;;18.80;65.22;98747.58;125445;1096;103122;-80
2021/07/26 03:21:30;;;;;;;14.47;6.57;;;;;;;18.89;65.72;98746.55;125506;1096;102961;-81
2021/07/26 03:23:59;;;;;;;14.03;6.80;;;;;;;18.98;66.00;98742.00;125464;1096;102922;-80
2021/07/26 03:26:27;;;;;;;15.13;7.47;;;;;;;19.03;65.71;98736.11;125486;1097;102926;-81
2021/07/26 03:28:55;;;;;;;16.53;8.10;;;;;;;19.00;65.21;98725.67;125514;1100;103005;-81
2021/07/26 03:31:24;;;;;;;15.83;8.27;;;;;;;18.94;65.91;98742.50;125430;1097;102980;-80
2021/07/26 03:33:54;;;;;;;17.00;8.40;;;;;;;18.83;65.63;98727.55;125473;1096;103015;-80
2021/07/26 03:36:23;;;;;;;15.53;8.20;;;;;;;18.77;65.52;98728.24;125436;1097;102936;-80
2021/07/26 03:38:51;;;;;;;16.17;7.70;;;;;;;18.65;65.84;98725.91;125442;1096;102945;-80
2021/07/26 03:41:21;;;;;;;19.33;9.47;;;;;;;18.50;65.91;98724.95;125476;1096;103003;-80
2021/07/26 03:43:49;;;;;;;23.23;10.23;;;;;;;18.40;66.27;98725.97;125411;1095;102936;-80
2021/07/26 03:46:17;;;;;;;19.20;10.77;;;;;;;18.38;66.10;98717.22;125462;1096;103015;-80
2021/07/26 03:48:46;;;;;;;23.03;10.77;;;;;;;18.39;66.33;98707.28;125441;1097;103090;-79
2021/07/26 03:51:14;;;;;;;21.90;11.50;;;;;;;18.40;66.56;98695.50;125405;1097;103042;-79
2021/07/26 03:53:43;;;;;;;22.20;11.77;;;;;;;18.40;66.16;98695.50;125487;1096;103015;-80
2021/07/26 03:56:17;;;;;;;22.33;10.93;;;;;;;18.39;67.07;98704.59;125381;1098;103668;-80
2021/07/26 03:58:46;;;;;;;24.27;13.20;;;;;;;18.37;66.70;98701.22;125488;1097;103071;-80
2021/07/26 04:01:20;;;;;;;23.27;13.03;;;;;;;18.37;67.07;98682.38;125477;1096;102945;-82
2021/07/26 04:03:50;;;;;;;26.30;13.83;;;;;;;18.38;67.05;98659.83;125488;1096;102957;-80
2021/07/26 04:06:21;;;;;;;21.00;12.83;;;;;;;18.41;67.06;98654.95;125408;1097;103035;-80
2021/07/26 04:08:52;;;;;;;25.70;13.13;;;;;;;18.49;67.10;98642.48;125410;1096;103016;-80
2021/07/26 04:13:56;;;;;;;24.63;14.23;;;;;;;18.62;67.25;98650.02;125464;1096;102945;-79
2021/07/26 04:16:25;;;;;;;26.43;14.63;;;;;;;18.69;67.26;98649.13;125477;1096;102922;-79
2021/07/26 04:18:56;;;;;;;25.03;13.70;;;;;;;18.74;67.00;98654.84;125451;1096;103022;-79
2021/07/26 04:21:32;;;;;;;24.20;13.40;;;;;;;18.78;67.33;98668.78;125421;1096;103012;-79
2021/07/26 04:24:08;;;;;;;23.23;13.23;;;;;;;18.79;67.24;98665.08;125459;1096;102903;-79
2021/07/26 04:26:37;;;;;;;20.90;12.87;;;;;;;18.81;67.11;98664.92;125412;1099;103093;-79
2021/07/26 04:29:05;;;;;;;23.77;12.37;;;;;;;18.84;66.99;98668.09;125509;1096;103090;-80
2021/07/26 04:31:33;;;;;;;22.07;13.17;;;;;;;18.88;67.59;98674.81;125609;1095;102941;-80
2021/07/26 04:34:02;;;;;;;25.17;13.60;;;;;;;18.95;67.26;98668.73;125561;1096;103164;-80
2021/07/26 04:36:30;;;;;;;24.87;14.20;;;;;;;19.00;67.51;98672.59;125579;1096;102923;-80
2021/07/26 04:38:59;;;;;;;25.20;13.63;;;;;;;19.08;67.27;98681.66;125518;1097;103005;-80
2021/07/26 04:41:33;;;;;;;24.03;13.57;;;;;;;19.11;67.37;98687.55;125553;1097;102983;-80
2021/07/26 04:44:02;;;;;;;24.10;13.73;;;;;;;19.10;67.55;98687.72;125552;1096;103107;-82
2021/07/26 04:46:31;;;;;;;21.77;13.17;;;;;;;19.09;67.62;98680.64;125521;1097;103146;-79
2021/07/26 04:48:59;;;;;;;26.23;15.07;;;;;;;19.09;67.76;98673.41;125575;1096;102942;-81
2021/07/26 04:51:27;;;;;;;22.47;13.17;;;;;;;19.15;67.58;98655.69;125544;1096;102916;-80
2021/07/26 04:53:56;;;;;;;23.13;14.00;;;;;;;19.22;68.02;98661.20;125542;1096;103004;-79
2021/07/26 04:56:24;;;;;;;22.37;13.33;;;;;;;19.30;68.11;98655.76;125532;1095;103090;-81
2021/07/26 04:58:52;;;;;;;23.90;13.73;;;;;;;19.37;67.88;98663.97;125485;1096;103018;-79
2021/07/26 05:01:21;;;;;;;22.17;14.13;;;;;;;19.44;67.69;98664.93;125482;1097;102942;-81
2021/07/26 05:03:50;;;;;;;23.23;13.50;;;;;;;19.49;68.16;98660.70;125447;1096;102919;-81
2021/07/26 05:06:19;;;;;;;25.40;13.57;;;;;;;19.57;67.78;98665.19;125459;1096;103022;-80
2021/07/26 05:08:47;;;;;;;24.13;14.30;;;;;;;19.61;68.15;98649.47;125549;1095;103006;-80
2021/07/26 05:11:22;;;;;;;23.03;13.87;;;;;;;19.63;67.74;98659.08;125490;1096;103041;-80
2021/07/26 05:13:51;;;;;;;24.83;13.87;;;;;;;19.67;68.05;98664.11;125517;1097;103094;-80
2021/07/26 05:16:20;;;;;;;22.13;13.33;;;;;;;19.72;68.09;98657.14;125416;1097;103154;-82
2021/07/26 05:18:52;;;;;;;22.37;13.23;;;;;;;19.76;68.23;98649.55;125508;1096;103421;-77
2021/07/26 05:21:22;;;;;;;;;;;;;;;19.81;68.48;98655.20;125512;1097;102995;-81
2021/07/26 05:23:52;;;;;;;21.70;13.00;;;;;;;19.85;68.06;98658.40;125513;1095;102940;-81
2021/07/26 05:26:20;;;;;;;21.13;12.47;;;;;;;19.88;67.88;98656.20;125489;1096;102952;-82
2021/07/26 05:28:48;;;;;;;22.23;12.77;;;;;;;19.93;67.94;98661.89;125487;1095;102961;-80
2021/07/26 05:31:17;;;;;;;22.10;13.13;;;;;;;20.01;68.27;98660.14;125516;1096;102949;-83
2021/07/26 05:33:45;;;;;;;21.60;12.40;;;;;;;20.10;68.11;98660.89;125466;1096;103145;-82
2021/07/26 05:36:14;;;;;;;24.63;13.63;;;;;;;20.17;68.07;98664.55;125474;1096;102964;-80
2021/07/26 05:38:42;;;;;;;21.00;13.07;;;;;;;20.23;68.58;98664.64;125496;1096;103024;-80
2021/07/26 05:41:11;;;;;;;24.97;16.03;;;;;;;20.28;68.23;98661.41;125537;1096;102970;-81
2021/07/26 05:43:41;;;;;;;22.80;14.23;;;;;;;20.31;68.51;98668.28;125547;1096;102919;-82
2021/07/26 05:46:10;;;;;;;21.63;13.20;;;;;;;20.34;68.41;98668.77;125561;1097;102943;-83
2021/07/26 05:48:40;;;;;;;21.60;12.63;;;;;;;20.38;68.33;98667.35;125497;1095;103413;-82
2021/07/26 05:51:09;;;;;;;23.27;12.70;;;;;;;20.46;68.38;98662.89;125575;1096;102948;-80
2021/07/26 05:53:38;;;;;;;20.10;12.30;;;;;;;20.55;68.41;98660.95;125409;1097;103012;-82
2021/07/26 05:56:08;;;;;;;21.60;12.83;;;;;;;20.61;68.33;98663.74;125406;1096;103065;-81
2021/07/26 05:58:42;;;;;;;21.33;11.43;;;;;;;20.71;68.47;98649.94;125456;1096;103221;-85
2021/07/26 06:01:22;;;;;;;20.43;11.07;;;;;;;20.82;68.32;98654.91;125455;1096;103093;-82
2021/07/26 06:03:51;;;;;;;21.20;11.90;;;;;;;20.88;68.24;98650.59;125484;1096;102942;-81
2021/07/26 06:06:19;;;;;;;21.27;12.57;;;;;;;20.99;68.34;98654.67;125452;1095;102944;-80
2021/07/26 06:08:48;;;;;;;23.40;11.57;;;;;;;21.13;68.11;98655.70;125461;1096;102990;-81
2021/07/26 06:11:18;;;;;;;21.53;12.07;;;;;;;21.24;68.25;98659.77;125498;1096;103432;-81
2021/07/26 06:13:47;;;;;;;20.40;11.13;;;;;;;21.38;68.54;98669.71;125482;1097;103062;-81
2021/07/26 06:16:16;;;;;;;24.73;11.60;;;;;;;21.49;68.15;98664.80;125431;1096;102978;-80
2021/07/26 06:18:44;;;;;;;20.43;10.97;;;;;;;21.62;68.18;98666.83;125479;1096;102930;-81
2021/07/26 06:21:14;;;;;;;20.50;11.25;;;;;;;21.70;68.20;98658.59;125478;1097;102935;-81
2021/07/26 06:23:42;;;;;;;20.27;11.00;;;;;;;21.80;68.54;98658.28;125445;1096;102985;-82
2021/07/26 06:26:10;;;;;;;21.27;10.97;;;;;;;21.89;68.51;98659.80;125496;1096;103072;-82
2021/07/26 06:28:39;;;;;;;19.63;10.17;;;;;;;22.00;68.20;98664.69;125492;1097;102957;-81
2021/07/26 06:31:07;;;;;;;20.50;11.40;;;;;;;22.10;67.66;98672.46;125473;1096;102924;-81
2021/07/26 06:33:37;;;;;;;21.17;10.87;;;;;;;22.16;68.40;98671.69;125482;1096;103054;-81
2021/07/26 06:36:05;;;;;;;19.67;11.13;;;;;;;22.15;68.26;98661.88;125516;1097;102958;-81
2021/07/26 06:38:34;;;;;;;18.90;10.20;;;;;;;22.19;68.29;98670.47;125424;1096;103012;-81
2021/07/26 06:41:03;;;;;;;20.40;11.00;;;;;;;22.22;68.00;98670.05;125463;1096;102948;-82
2021/07/26 06:43:31;;;;;;;18.43;9.90;;;;;;;22.28;67.95;98666.55;125485;1097;103062;-82
2021/07/26 06:45:59;;;;;;;24.10;11.70;;;;;;;22.35;68.18;98673.89;125477;1097;102940;-82
2021/07/26 06:48:28;;;;;;;19.53;10.53;;;;;;;22.43;67.93;98673.75;125445;1096;102967;-81
2021/07/26 06:50:57;;;;;;;22.27;11.33;;;;;;;22.51;67.99;98676.34;125469;1096;102920;-83
2021/07/26 06:53:25;;;;;;;19.30;10.70;;;;;;;22.58;68.00;98674.52;125525;1097;103000;-82
2021/07/26 06:55:54;;;;;;;20.30;10.70;;;;;;;22.68;67.78;98662.45;125486;1096;102947;-82
2021/07/26 06:58:22;;;;;;;20.63;11.27;;;;;;;22.75;67.53;98668.75;125516;1095;103000;-81
2021/07/26 07:00:51;;;;;;;16.20;8.87;;;;;;;22.70;67.66;98660.38;125534;1097;102927;-82
2021/07/26 07:03:20;;;;;;;20.17;8.97;;;;;;;22.63;67.62;98665.77;125574;1097;103432;-80
2021/07/26 07:05:49;;;;;;;16.20;8.80;;;;;;;22.64;67.19;98661.17;125584;1096;102972;-82
2021/07/26 07:08:17;;;;;;;21.65;8.95;;;;;;;22.84;67.15;98664.84;125676;1096;102916;-89
2021/07/26 07:10:46;;;;;;;20.40;9.47;;;;;;;23.75;66.32;98656.55;125681;1096;102916;-87
2021/07/26 07:13:15;;;;;;;16.30;8.10;;;;;;;24.68;65.80;98673.84;125497;1095;102936;-81
2021/07/26 07:15:43;;;;;;;16.77;8.73;;;;;;;25.47;65.59;98665.63;125537;1095;102998;-82
2021/07/26 07:18:11;;;;;;;15.00;7.20;;;;;;;26.19;65.42;98675.37;125535;1095;102916;-82
2021/07/26 07:20:40;;;;;;;16.83;7.93;;;;;;;26.84;64.80;98674.13;125510;1097;102939;-84
2021/07/26 07:23:08;;;;;;;18.00;8.27;;;;;;;27.36;64.81;98674.73;125489;1096;103007;-82
2021/07/26 07:25:36;;;;;;;15.10;7.77;;;;;;;27.91;64.54;98674.58;125507;1096;103019;-84
2021/07/26 07:28:05;;;;;;;15.90;7.43;;;;;;;28.55;64.16;98673.06;125473;1095;103064;-82
2021/07/26 07:30:34;;;;;;;14.93;7.60;;;;;;;29.16;63.91;98678.22;125511;1096;102999;-84
2021/07/26 07:33:03;;;;;;;15.97;7.53;;;;;;;29.61;64.21;98673.88;125506;1097;103034;-84
2021/07/26 07:35:34;;;;;;;16.60;7.90;;;;;;;30.01;62.16;98677.61;125634;1096;103001;-84
2021/07/26 07:38:03;;;;;;;14.13;7.10;;;;;;;30.18;61.89;98684.98;125591;1095;103137;-85
2021/07/26 07:40:31;;;;;;;16.47;7.23;;;;;;;30.21;61.81;98679.85;125504;1096;103080;-85
2021/07/26 07:43:00;;;;;;;14.90;7.60;;;;;;;30.66;61.78;98677.23;125624;1096;102891;-85
2021/07/26 07:45:30;;;;;;;16.43;7.10;;;;;;;31.17;61.99;98679.83;125586;1096;102934;-85
2021/07/26 07:48:01;;;;;;;13.10;7.40;;;;;;;31.99;61.76;98679.01;125544;1096;102914;-85
2021/07/26 07:50:30;;;;;;;15.47;7.80;;;;;;;32.41;60.84;98686.50;125613;1095;103432;-85
2021/07/26 07:53:00;;;;;;;14.47;7.00;;;;;;;32.17;59.43;98683.27;125587;1096;103090;-85
2021/07/26 07:55:29;;;;;;;14.27;7.50;;;;;;;31.74;60.02;98681.27;125646;1097;103050;-85
2021/07/26 07:58:01;;;;;;;19.33;7.50;;;;;;;32.27;60.04;98688.86;125474;1096;102945;-84
2021/07/26 08:00:30;;;;;;;14.13;7.17;;;;;;;32.78;59.25;98688.37;125548;1095;103010;-85
2021/07/26 08:02:59;;;;;;;12.07;6.97;;;;;;;33.10;58.44;98692.94;125720;1095;102926;-84
2021/07/26 08:05:28;;;;;;;13.27;6.87;;;;;;;33.43;58.72;98695.56;125749;1095;103080;-84
2021/07/26 08:07:57;;;;;;;13.97;7.20;;;;;;;33.94;58.38;98699.53;125766;1096;103015;-84
2021/07/26 08:10:25;;;;;;;11.73;6.87;;;;;;;34.16;57.02;98695.66;125719;1096;102921;-83
2021/07/26 08:12:54;;;;;;;13.10;6.37;;;;;;;34.28;57.54;98701.72;125765;1096;103000;-84
2021/07/26 08:15:22;;;;;;;15.07;7.57;;;;;;;34.60;57.27;98706.11;125767;1095;103022;-84
2021/07/26 08:17:51;;;;;;;12.17;7.10;;;;;;;34.26;54.69;98701.98;125777;1096;103032;-82
2021/07/26 08:20:20;;;;;;;23.03;7.30;;;;;;;33.63;55.31;98702.20;125677;1095;102949;-83
2021/07/26 08:22:49;;;;;;;16.77;7.30;;;;;;;33.76;55.11;98712.71;125555;1096;102943;-85
2021/07/26 08:25:17;;;;;;;12.57;7.50;;;;;;;33.10;55.00;98706.72;125522;1096;102980;-85
2021/07/26 08:27:53;;;;;;;12.40;7.57;;;;;;;32.64;54.61;98712.80;125492;1097;103083;-83
2021/07/26 08:30:27;;;;;;;15.40;8.03;;;;;;;31.87;53.93;98702.00;125419;1096;103016;-84
2021/07/26 08:33:01;;;;;;;16.73;8.17;;;;;;;32.25;53.83;98693.80;125494;1096;103370;-84
2021/07/26 08:35:30;;;;;;;13.75;6.90;;;;;;;32.77;52.77;98700.48;125537;1096;103007;-84
2021/07/26 08:37:59;;;;;;;12.45;7.50;;;;;;;33.15;52.88;98700.41;125466;1096;103025;-84
2021/07/26 08:40:29;;;;;;;16.60;7.70;;;;;;;33.70;52.68;98708.28;125518;1095;102948;-84
2021/07/26 08:43:04;;;;;;;16.67;8.00;;;;;;;34.01;52.22;98707.52;125481;1095;103414;-84
2021/07/26 08:45:33;;;;;;;14.50;7.67;;;;;;;34.43;51.80;98706.39;125488;1096;102951;-86
2021/07/26 08:48:09;;;;;;;14.20;7.43;;;;;;;34.41;50.91;98698.41;125495;1096;103039;-83
2021/07/26 08:50:39;;;;;;;15.47;7.40;;;;;;;34.17;49.95;98700.91;125455;1099;102979;-84
2021/07/26 08:53:09;;;;;;;15.07;6.83;;;;;;;34.01;49.95;98700.09;125464;1096;102957;-82
2021/07/26 08:55:38;;;;;;;16.10;7.33;;;;;;;34.11;49.75;98694.55;125488;1096;103039;-83
2021/07/26 08:58:07;;;;;;;14.17;7.90;;;;;;;34.35;48.90;98693.15;125502;1096;102951;-84
2021/07/26 09:00:37;;;;;;;14.70;7.47;;;;;;;34.27;48.82;98691.79;125491;1096;102909;-83
2021/07/26 09:03:05;;;;;;;12.77;7.43;;;;;;;34.46;48.66;98696.75;125480;1097;103005;-84
2021/07/26 09:05:33;;;;;;;16.13;8.23;;;;;;;34.43;48.40;98698.11;125478;1096;103007;-84
2021/07/26 09:08:02;;;;;;;12.73;6.87;;;;;;;34.07;47.31;98695.39;125454;1096;103390;-85
2021/07/26 09:10:36;;;;;;;15.90;7.63;;;;;;;33.18;47.38;98701.79;125454;1095;103020;-84
2021/07/26 09:13:05;;;;;;;12.97;7.10;;;;;;;32.53;47.71;98688.23;125469;1096;102940;-84
2021/07/26 09:15:37;;;;;;;12.10;6.80;;;;;;;32.07;46.01;98679.34;125511;1096;102954;-83
2021/07/26 09:18:10;;;;;;;14.45;7.80;;;;;;;31.98;46.81;98694.70;125523;1096;103071;-85
2021/07/26 09:20:40;;;;;;;15.80;7.77;;;;;;;32.42;46.55;98679.06;125442;1096;102881;-84
2021/07/26 09:23:16;;;;;;;16.57;8.00;;;;;;;32.74;46.52;98678.17;125552;1096;103015;-86
2021/07/26 09:25:48;;;;;;;12.03;6.80;;;;;;;33.14;45.29;98684.14;125484;1096;102948;-85
2021/07/26 09:28:22;;;;;;;15.10;7.53;;;;;;;33.21;45.19;98685.56;125523;1096;102921;-85
2021/07/26 09:30:52;;;;;;;12.43;7.20;;;;;;;33.39;45.23;98683.42;125467;1096;102932;-84
2021/07/26 09:33:32;;;;;;;13.53;7.53;;;;;;;33.54;45.16;98674.34;125458;1096;103091;-85
2021/07/26 09:36:10;;;;;;;13.93;6.83;;;;;;;33.66;44.00;98685.95;125483;1096;102977;-84
2021/07/26 09:38:52;;;;;;;15.40;7.70;;;;;;;33.68;45.19;98680.16;125428;1096;103006;-83
2021/07/26 09:41:44;;;;;;;16.07;7.83;;;;;;;33.93;44.73;98678.56;125494;1100;103001;-83
2021/07/26 09:44:13;;;;;;;18.15;8.05;;;;;;;33.66;44.15;98687.88;125514;1096;103012;-84
2021/07/26 09:46:43;;;;;;;13.63;7.37;;;;;;;33.39;43.20;98688.93;125437;1096;103099;-85
2021/07/26 09:49:15;;;;;;;18.90;8.17;;;;;;;32.96;43.18;98684.35;125504;1096;102948;-83
2021/07/26 09:52:01;;;;;;;14.00;7.37;;;;;;;32.93;43.14;98689.58;125474;1096;102929;-82
2021/07/26 09:54:42;;;;;;;12.90;7.97;;;;;;;33.02;43.45;98684.38;125495;1095;102932;-85
2021/07/26 09:57:23;;;;;;;17.30;7.70;;;;;;;33.36;43.41;98682.02;125474;1096;102911;-85
2021/07/26 09:59:53;;;;;;;14.67;7.60;;;;;;;33.69;43.08;98676.30;125444;1096;103068;-82
2021/07/26 10:02:28;;;;;;;16.67;7.93;;;;;;;33.84;43.45;98676.32;125485;1097;103006;-84
2021/07/26 10:04:58;;;;;;;16.40;8.60;;;;;;;34.02;42.71;98684.35;125461;1097;103182;-83
2021/07/26 10:07:27;;;;;;;14.67;7.47;;;;;;;33.85;42.35;98680.73;125595;1096;102922;-82
2021/07/26 10:09:58;;;;;;;17.50;9.00;;;;;;;33.28;42.25;98681.70;125502;1096;102935;-81
2021/07/26 10:12:27;;;;;;;13.83;7.23;;;;;;;32.75;41.77;98679.83;125526;1096;103156;-81
2021/07/26 10:14:59;;;;;;;21.33;8.87;;;;;;;32.35;42.38;98677.40;125480;1096;102954;-82
2021/07/26 10:17:28;;;;;;;16.00;8.27;;;;;;;32.31;42.51;98675.42;125460;1100;102944;-83
2021/07/26 10:19:57;;;;;;;21.77;9.10;;;;;;;32.36;42.75;98684.56;125468;1097;102911;-83
2021/07/26 10:22:28;;;;;;;16.97;8.47;;;;;;;32.44;42.56;98679.63;125527;1096;102943;-83
2021/07/26 10:25:05;;;;;;;16.90;8.63;;;;;;;32.45;42.28;98695.89;125502;1096;102922;-82
2021/07/26 10:27:39;;;;;;;16.83;8.00;;;;;;;32.31;42.25;98690.02;125476;1095;102917;-81
2021/07/26 10:30:09;;;;;;;16.47;8.03;;;;;;;32.08;41.88;98685.69;125459;1096;103065;-82
2021/07/26 10:32:39;;;;;;;13.90;7.73;;;;;;;31.81;41.60;98674.73;125498;1096;103072;-81
2021/07/26 10:35:15;;;;;;;16.95;8.65;;;;;;;31.59;41.77;98683.83;125464;1095;103034;-82
2021/07/26 10:37:48;;;;;;;22.67;9.70;;;;;;;31.48;41.97;98691.14;125464;1096;102917;-81
2021/07/26 10:40:30;;;;;;;18.63;9.20;;;;;;;31.41;41.85;98685.86;125475;1096;103044;-82
2021/07/26 10:43:02;;;;;;;16.00;8.60;;;;;;;31.27;42.07;98690.94;125500;1096;103074;-84
2021/07/26 10:45:31;;;;;;;15.37;8.80;;;;;;;31.17;41.63;98693.56;125443;1096;103076;-84
2021/07/26 10:48:24;;;;;;;16.53;8.97;;;;;;;31.06;41.66;98697.23;125453;1096;102933;-84
2021/07/26 10:50:55;;;;;;;16.37;8.80;;;;;;;30.97;41.64;98696.85;125443;1096;103035;-84
2021/07/26 10:53:36;;;;;;;21.70;9.20;;;;;;;30.88;41.54;98682.75;125523;1096;102926;-83
2021/07/26 10:56:09;;;;;;;22.67;9.80;;;;;;;30.81;42.10;98695.83;125448;1096;103039;-84
2021/07/26 10:58:41;;;;;;;19.90;8.97;;;;;;;30.73;41.60;98688.87;125451;1097;103015;-81
2021/07/26 11:01:26;;;;;;;17.73;9.77;;;;;;;30.66;42.12;98690.96;125503;1096;103074;-82
2021/07/26 11:03:59;;;;;;;18.40;9.07;;;;;;;30.63;41.82;98684.05;125709;1096;103023;-82
2021/07/26 11:06:36;;;;;;;;;;;;;;;30.71;42.44;98689.11;125623;1096;103039;-82
2021/07/26 11:09:32;;;;;;;18.60;9.27;;;;;;;30.83;41.97;98685.42;125465;1096;103060;-83
2021/07/26 11:12:05;;;;;;;17.93;9.10;;;;;;;31.02;42.26;98681.26;125477;1100;103550;-82
2021/07/26 11:14:34;;;;;;;17.33;9.27;;;;;;;31.11;41.81;98678.91;125435;1097;103039;-82
2021/07/26 11:17:09;;;;;;;18.13;9.27;;;;;;;31.11;42.05;98673.42;125416;1096;103034;-82
2021/07/26 11:19:40;;;;;;;19.75;10.10;;;;;;;31.22;41.97;98690.88;125489;1096;102943;-82
2021/07/26 11:22:16;;;;;;;16.30;9.50;;;;;;;31.21;42.01;98677.38;125490;1096;103068;-82
2021/07/26 11:24:45;;;;;;;18.93;9.97;;;;;;;31.23;42.28;98681.55;125457;1097;103031;-83